sensor_id;sensor_type;location;lat;lon;timestamp;P1;durP1;ratioP1;P2;durP2;ratioP2
12208;SDS011;6167;43.080;25.634;2023-03-23T00:01:02;24.43;;;18.27;;
12208;SDS011;6167;43.080;25.634;2023-03-23T00:03:29;23.73;;;18.23;;
12208;SDS011;6167;43.080;25.634;2023-03-23T00:05:58;22.60;;;18.70;;
12208;SDS011;6167;43.080;25.634;2023-03-23T00:08:30;21.00;;;18.23;;
12208;SDS011;6167;43.080;25.634;2023-03-23T00:10:56;20.90;;;17.87;;
12208;SDS011;6167;43.080;25.634;2023-03-23T00:13:23;21.47;;;17.93;;
12208;SDS011;6167;43.080;25.634;2023-03-23T00:15:50;21.40;;;18.17;;
12208;SDS011;6167;43.080;25.634;2023-03-23T00:18:17;21.13;;;17.60;;
12208;SDS011;6167;43.080;25.634;2023-03-23T00:20:47;20.60;;;17.40;;
12208;SDS011;6167;43.080;25.634;2023-03-23T00:23:15;20.53;;;17.30;;
12208;SDS011;6167;43.080;25.634;2023-03-23T00:25:48;21.17;;;16.03;;
12208;SDS011;6167;43.080;25.634;2023-03-23T00:28:15;21.30;;;17.97;;
12208;SDS011;6167;43.080;25.634;2023-03-23T00:30:42;19.80;;;17.07;;
12208;SDS011;6167;43.080;25.634;2023-03-23T00:33:10;20.33;;;16.93;;
12208;SDS011;6167;43.080;25.634;2023-03-23T00:35:37;19.77;;;16.80;;
12208;SDS011;6167;43.080;25.634;2023-03-23T00:38:05;20.53;;;16.93;;
12208;SDS011;6167;43.080;25.634;2023-03-23T00:40:34;19.40;;;16.33;;
12208;SDS011;6167;43.080;25.634;2023-03-23T00:43:02;20.60;;;16.40;;
12208;SDS011;6167;43.080;25.634;2023-03-23T00:45:29;21.23;;;17.73;;
12208;SDS011;6167;43.080;25.634;2023-03-23T00:47:55;24.07;;;19.07;;
12208;SDS011;6167;43.080;25.634;2023-03-23T00:50:26;22.17;;;17.77;;
12208;SDS011;6167;43.080;25.634;2023-03-23T00:52:53;21.87;;;17.43;;
12208;SDS011;6167;43.080;25.634;2023-03-23T00:55:21;24.43;;;19.47;;
12208;SDS011;6167;43.080;25.634;2023-03-23T00:57:49;22.70;;;17.90;;
12208;SDS011;6167;43.080;25.634;2023-03-23T01:00:16;24.20;;;19.13;;
12208;SDS011;6167;43.080;25.634;2023-03-23T01:02:44;23.63;;;19.57;;
12208;SDS011;6167;43.080;25.634;2023-03-23T01:05:10;24.43;;;19.40;;
12208;SDS011;6167;43.080;25.634;2023-03-23T01:07:37;28.57;;;20.40;;
12208;SDS011;6167;43.080;25.634;2023-03-23T01:10:04;24.60;;;19.00;;
12208;SDS011;6167;43.080;25.634;2023-03-23T01:12:30;23.50;;;17.90;;
12208;SDS011;6167;43.080;25.634;2023-03-23T01:14:58;24.27;;;17.63;;
12208;SDS011;6167;43.080;25.634;2023-03-23T01:17:25;22.00;;;17.73;;
12208;SDS011;6167;43.080;25.634;2023-03-23T01:19:51;25.07;;;17.83;;
12208;SDS011;6167;43.080;25.634;2023-03-23T01:22:18;24.40;;;17.67;;
12208;SDS011;6167;43.080;25.634;2023-03-23T01:24:44;25.37;;;18.47;;
12208;SDS011;6167;43.080;25.634;2023-03-23T01:27:11;24.37;;;18.07;;
12208;SDS011;6167;43.080;25.634;2023-03-23T01:29:37;24.63;;;18.40;;
12208;SDS011;6167;43.080;25.634;2023-03-23T01:32:06;21.17;;;16.57;;
12208;SDS011;6167;43.080;25.634;2023-03-23T01:34:32;23.63;;;17.23;;
12208;SDS011;6167;43.080;25.634;2023-03-23T01:36:59;26.07;;;18.27;;
12208;SDS011;6167;43.080;25.634;2023-03-23T01:39:25;26.77;;;18.47;;
12208;SDS011;6167;43.080;25.634;2023-03-23T01:41:52;26.33;;;18.67;;
12208;SDS011;6167;43.080;25.634;2023-03-23T01:47:03;24.80;;;17.97;;
12208;SDS011;6167;43.080;25.634;2023-03-23T01:49:33;26.97;;;18.60;;
12208;SDS011;6167;43.080;25.634;2023-03-23T01:52:02;27.13;;;18.40;;
12208;SDS011;6167;43.080;25.634;2023-03-23T01:54:30;26.03;;;18.60;;
12208;SDS011;6167;43.080;25.634;2023-03-23T01:56:58;25.23;;;17.77;;
12208;SDS011;6167;43.080;25.634;2023-03-23T01:59:25;25.37;;;18.23;;
12208;SDS011;6167;43.080;25.634;2023-03-23T02:01:53;26.43;;;17.10;;
12208;SDS011;6167;43.080;25.634;2023-03-23T02:04:20;24.90;;;17.40;;
12208;SDS011;6167;43.080;25.634;2023-03-23T02:06:52;26.63;;;18.37;;
12208;SDS011;6167;43.080;25.634;2023-03-23T02:09:19;24.70;;;17.03;;
12208;SDS011;6167;43.080;25.634;2023-03-23T02:11:46;23.03;;;15.73;;
12208;SDS011;6167;43.080;25.634;2023-03-23T02:14:15;22.90;;;16.40;;
12208;SDS011;6167;43.080;25.634;2023-03-23T02:16:43;20.33;;;14.93;;
12208;SDS011;6167;43.080;25.634;2023-03-23T02:19:23;21.30;;;15.77;;
12208;SDS011;6167;43.080;25.634;2023-03-23T02:22:05;19.40;;;13.00;;
12208;SDS011;6167;43.080;25.634;2023-03-23T02:24:40;17.03;;;13.77;;
12208;SDS011;6167;43.080;25.634;2023-03-23T02:27:11;18.17;;;14.00;;
12208;SDS011;6167;43.080;25.634;2023-03-23T02:29:50;18.87;;;14.67;;
12208;SDS011;6167;43.080;25.634;2023-03-23T02:32:24;20.67;;;15.03;;
12208;SDS011;6167;43.080;25.634;2023-03-23T02:34:56;19.73;;;15.27;;
12208;SDS011;6167;43.080;25.634;2023-03-23T02:37:26;20.63;;;14.83;;
12208;SDS011;6167;43.080;25.634;2023-03-23T02:39:54;18.47;;;14.57;;
12208;SDS011;6167;43.080;25.634;2023-03-23T02:42:23;16.93;;;14.30;;
12208;SDS011;6167;43.080;25.634;2023-03-23T02:44:52;18.10;;;14.50;;
12208;SDS011;6167;43.080;25.634;2023-03-23T02:47:20;18.17;;;13.63;;
12208;SDS011;6167;43.080;25.634;2023-03-23T02:49:48;18.07;;;13.60;;
12208;SDS011;6167;43.080;25.634;2023-03-23T02:52:19;17.10;;;13.10;;
12208;SDS011;6167;43.080;25.634;2023-03-23T02:54:48;22.30;;;14.37;;
12208;SDS011;6167;43.080;25.634;2023-03-23T02:57:16;17.13;;;13.07;;
12208;SDS011;6167;43.080;25.634;2023-03-23T02:59:43;15.93;;;12.63;;
12208;SDS011;6167;43.080;25.634;2023-03-23T03:02:11;16.40;;;12.83;;
12208;SDS011;6167;43.080;25.634;2023-03-23T03:04:39;17.70;;;13.13;;
12208;SDS011;6167;43.080;25.634;2023-03-23T03:07:10;17.93;;;13.30;;
12208;SDS011;6167;43.080;25.634;2023-03-23T03:09:42;17.30;;;12.63;;
12208;SDS011;6167;43.080;25.634;2023-03-23T03:12:12;16.40;;;13.27;;
12208;SDS011;6167;43.080;25.634;2023-03-23T03:14:40;19.70;;;14.03;;
12208;SDS011;6167;43.080;25.634;2023-03-23T03:17:09;16.10;;;12.40;;
12208;SDS011;6167;43.080;25.634;2023-03-23T03:19:40;18.10;;;13.33;;
12208;SDS011;6167;43.080;25.634;2023-03-23T03:22:08;18.97;;;13.40;;
12208;SDS011;6167;43.080;25.634;2023-03-23T03:24:35;15.33;;;13.07;;
12208;SDS011;6167;43.080;25.634;2023-03-23T03:27:04;14.97;;;11.93;;
12208;SDS011;6167;43.080;25.634;2023-03-23T03:29:32;15.73;;;12.13;;
12208;SDS011;6167;43.080;25.634;2023-03-23T03:31:59;15.20;;;12.83;;
12208;SDS011;6167;43.080;25.634;2023-03-23T03:34:29;16.70;;;12.93;;
12208;SDS011;6167;43.080;25.634;2023-03-23T03:36:57;17.27;;;14.20;;
12208;SDS011;6167;43.080;25.634;2023-03-23T03:39:25;15.23;;;12.27;;
12208;SDS011;6167;43.080;25.634;2023-03-23T03:41:52;13.93;;;11.57;;
12208;SDS011;6167;43.080;25.634;2023-03-23T03:44:20;14.63;;;11.17;;
12208;SDS011;6167;43.080;25.634;2023-03-23T03:46:47;12.97;;;10.83;;
12208;SDS011;6167;43.080;25.634;2023-03-23T03:49:14;12.67;;;11.37;;
12208;SDS011;6167;43.080;25.634;2023-03-23T03:51:41;14.10;;;11.57;;
12208;SDS011;6167;43.080;25.634;2023-03-23T03:54:08;13.07;;;10.60;;
12208;SDS011;6167;43.080;25.634;2023-03-23T03:56:35;13.50;;;11.27;;
12208;SDS011;6167;43.080;25.634;2023-03-23T03:59:05;13.03;;;11.30;;
12208;SDS011;6167;43.080;25.634;2023-03-23T04:01:34;14.13;;;12.67;;
12208;SDS011;6167;43.080;25.634;2023-03-23T04:04:01;14.47;;;11.73;;
12208;SDS011;6167;43.080;25.634;2023-03-23T04:06:28;15.47;;;11.80;;
12208;SDS011;6167;43.080;25.634;2023-03-23T04:08:54;15.20;;;12.57;;
12208;SDS011;6167;43.080;25.634;2023-03-23T04:11:21;16.50;;;12.67;;
12208;SDS011;6167;43.080;25.634;2023-03-23T04:13:47;14.03;;;12.07;;
12208;SDS011;6167;43.080;25.634;2023-03-23T04:16:14;14.43;;;12.40;;
12208;SDS011;6167;43.080;25.634;2023-03-23T04:18:43;16.20;;;13.53;;
12208;SDS011;6167;43.080;25.634;2023-03-23T04:21:09;15.93;;;13.57;;
12208;SDS011;6167;43.080;25.634;2023-03-23T04:23:36;14.70;;;13.13;;
12208;SDS011;6167;43.080;25.634;2023-03-23T04:26:03;13.67;;;12.27;;
12208;SDS011;6167;43.080;25.634;2023-03-23T04:28:30;14.67;;;13.03;;
12208;SDS011;6167;43.080;25.634;2023-03-23T04:31:00;14.37;;;12.50;;
12208;SDS011;6167;43.080;25.634;2023-03-23T04:33:28;14.23;;;12.70;;
12208;SDS011;6167;43.080;25.634;2023-03-23T04:35:58;14.77;;;13.20;;
12208;SDS011;6167;43.080;25.634;2023-03-23T04:38:26;16.20;;;13.40;;
12208;SDS011;6167;43.080;25.634;2023-03-23T04:40:53;16.80;;;14.60;;
12208;SDS011;6167;43.080;25.634;2023-03-23T04:43:19;17.20;;;15.13;;
12208;SDS011;6167;43.080;25.634;2023-03-23T04:45:47;19.77;;;15.70;;
12208;SDS011;6167;43.080;25.634;2023-03-23T04:48:21;19.30;;;15.47;;
12208;SDS011;6167;43.080;25.634;2023-03-23T04:50:48;17.27;;;14.27;;
12208;SDS011;6167;43.080;25.634;2023-03-23T04:53:17;19.37;;;15.73;;
12208;SDS011;6167;43.080;25.634;2023-03-23T04:55:44;18.47;;;15.17;;
12208;SDS011;6167;43.080;25.634;2023-03-23T04:58:10;20.20;;;16.10;;
12208;SDS011;6167;43.080;25.634;2023-03-23T05:00:39;18.77;;;15.10;;
12208;SDS011;6167;43.080;25.634;2023-03-23T05:03:08;19.90;;;16.53;;
12208;SDS011;6167;43.080;25.634;2023-03-23T05:05:35;19.00;;;16.57;;
12208;SDS011;6167;43.080;25.634;2023-03-23T05:08:02;21.90;;;17.60;;
12208;SDS011;6167;43.080;25.634;2023-03-23T05:10:30;23.47;;;17.87;;
12208;SDS011;6167;43.080;25.634;2023-03-23T05:12:56;24.00;;;18.57;;
12208;SDS011;6167;43.080;25.634;2023-03-23T05:15:23;105.30;;;73.00;;
12208;SDS011;6167;43.080;25.634;2023-03-23T05:17:50;75.47;;;56.03;;
12208;SDS011;6167;43.080;25.634;2023-03-23T05:20:17;26.67;;;20.20;;
12208;SDS011;6167;43.080;25.634;2023-03-23T05:22:45;23.23;;;18.83;;
12208;SDS011;6167;43.080;25.634;2023-03-23T05:25:13;23.87;;;19.00;;
12208;SDS011;6167;43.080;25.634;2023-03-23T05:27:41;25.67;;;18.73;;
12208;SDS011;6167;43.080;25.634;2023-03-23T05:30:08;23.70;;;18.33;;
12208;SDS011;6167;43.080;25.634;2023-03-23T05:32:35;24.07;;;18.13;;
12208;SDS011;6167;43.080;25.634;2023-03-23T05:35:03;24.27;;;18.10;;
12208;SDS011;6167;43.080;25.634;2023-03-23T05:37:30;22.90;;;18.17;;
12208;SDS011;6167;43.080;25.634;2023-03-23T05:39:57;25.37;;;19.07;;
12208;SDS011;6167;43.080;25.634;2023-03-23T05:42:28;23.43;;;18.63;;
12208;SDS011;6167;43.080;25.634;2023-03-23T05:44:56;26.87;;;19.87;;
12208;SDS011;6167;43.080;25.634;2023-03-23T05:47:23;84.83;;;64.57;;
12208;SDS011;6167;43.080;25.634;2023-03-23T05:49:50;64.27;;;50.00;;
12208;SDS011;6167;43.080;25.634;2023-03-23T05:52:17;28.17;;;20.37;;
12208;SDS011;6167;43.080;25.634;2023-03-23T05:54:44;26.67;;;19.53;;
12208;SDS011;6167;43.080;25.634;2023-03-23T05:57:10;24.00;;;19.50;;
12208;SDS011;6167;43.080;25.634;2023-03-23T05:59:37;23.33;;;18.67;;
12208;SDS011;6167;43.080;25.634;2023-03-23T06:02:05;83.03;;;58.33;;
12208;SDS011;6167;43.080;25.634;2023-03-23T06:04:31;60.47;;;45.90;;
12208;SDS011;6167;43.080;25.634;2023-03-23T06:06:58;23.13;;;19.03;;
12208;SDS011;6167;43.080;25.634;2023-03-23T06:09:25;23.40;;;18.27;;
12208;SDS011;6167;43.080;25.634;2023-03-23T06:11:51;23.30;;;17.67;;
12208;SDS011;6167;43.080;25.634;2023-03-23T06:14:18;21.93;;;17.30;;
12208;SDS011;6167;43.080;25.634;2023-03-23T06:16:44;21.90;;;17.37;;
12208;SDS011;6167;43.080;25.634;2023-03-23T06:19:12;21.60;;;17.13;;
12208;SDS011;6167;43.080;25.634;2023-03-23T06:21:40;20.40;;;16.90;;
12208;SDS011;6167;43.080;25.634;2023-03-23T06:24:07;21.23;;;17.47;;
12208;SDS011;6167;43.080;25.634;2023-03-23T06:26:35;23.13;;;18.57;;
12208;SDS011;6167;43.080;25.634;2023-03-23T06:29:03;20.23;;;16.23;;
12208;SDS011;6167;43.080;25.634;2023-03-23T06:31:35;20.53;;;16.83;;
12208;SDS011;6167;43.080;25.634;2023-03-23T06:34:03;19.70;;;16.80;;
12208;SDS011;6167;43.080;25.634;2023-03-23T06:36:31;21.53;;;17.57;;
12208;SDS011;6167;43.080;25.634;2023-03-23T06:38:57;24.30;;;17.73;;
12208;SDS011;6167;43.080;25.634;2023-03-23T06:41:24;19.67;;;15.47;;
12208;SDS011;6167;43.080;25.634;2023-03-23T06:43:51;17.67;;;15.77;;
12208;SDS011;6167;43.080;25.634;2023-03-23T06:46:18;19.50;;;16.03;;
12208;SDS011;6167;43.080;25.634;2023-03-23T06:48:45;17.33;;;14.70;;
12208;SDS011;6167;43.080;25.634;2023-03-23T06:51:14;30.00;;;20.13;;
12208;SDS011;6167;43.080;25.634;2023-03-23T06:53:43;16.33;;;13.37;;
12208;SDS011;6167;43.080;25.634;2023-03-23T06:56:10;13.80;;;12.13;;
12208;SDS011;6167;43.080;25.634;2023-03-23T06:58:38;13.70;;;12.20;;
12208;SDS011;6167;43.080;25.634;2023-03-23T07:01:06;15.10;;;13.23;;
12208;SDS011;6167;43.080;25.634;2023-03-23T07:03:34;16.57;;;14.33;;
12208;SDS011;6167;43.080;25.634;2023-03-23T07:06:03;14.53;;;12.77;;
12208;SDS011;6167;43.080;25.634;2023-03-23T07:08:29;14.43;;;12.23;;
12208;SDS011;6167;43.080;25.634;2023-03-23T07:10:58;13.30;;;11.90;;
12208;SDS011;6167;43.080;25.634;2023-03-23T07:13:25;14.57;;;12.13;;
12208;SDS011;6167;43.080;25.634;2023-03-23T07:15:52;13.47;;;11.70;;
12208;SDS011;6167;43.080;25.634;2023-03-23T07:18:19;14.93;;;12.33;;
12208;SDS011;6167;43.080;25.634;2023-03-23T07:20:46;15.37;;;12.23;;
12208;SDS011;6167;43.080;25.634;2023-03-23T07:23:13;13.97;;;12.53;;
12208;SDS011;6167;43.080;25.634;2023-03-23T07:25:40;14.90;;;12.40;;
12208;SDS011;6167;43.080;25.634;2023-03-23T07:28:10;15.20;;;12.70;;
12208;SDS011;6167;43.080;25.634;2023-03-23T07:30:37;15.80;;;12.30;;
12208;SDS011;6167;43.080;25.634;2023-03-23T07:33:04;16.37;;;13.77;;
12208;SDS011;6167;43.080;25.634;2023-03-23T07:35:31;16.70;;;14.60;;
12208;SDS011;6167;43.080;25.634;2023-03-23T07:37:58;17.30;;;13.10;;
12208;SDS011;6167;43.080;25.634;2023-03-23T07:40:25;15.53;;;12.80;;
12208;SDS011;6167;43.080;25.634;2023-03-23T07:42:52;15.30;;;12.50;;
12208;SDS011;6167;43.080;25.634;2023-03-23T07:45:21;14.47;;;12.30;;
12208;SDS011;6167;43.080;25.634;2023-03-23T07:47:48;15.13;;;12.67;;
12208;SDS011;6167;43.080;25.634;2023-03-23T07:50:15;14.13;;;11.73;;
12208;SDS011;6167;43.080;25.634;2023-03-23T07:52:43;12.80;;;11.27;;
12208;SDS011;6167;43.080;25.634;2023-03-23T07:55:11;14.33;;;12.03;;
12208;SDS011;6167;43.080;25.634;2023-03-23T07:57:43;12.47;;;11.23;;
12208;SDS011;6167;43.080;25.634;2023-03-23T08:00:10;13.73;;;11.33;;
12208;SDS011;6167;43.080;25.634;2023-03-23T08:02:42;14.80;;;11.30;;
12208;SDS011;6167;43.080;25.634;2023-03-23T08:05:09;14.30;;;12.00;;
12208;SDS011;6167;43.080;25.634;2023-03-23T08:07:35;12.13;;;10.83;;
12208;SDS011;6167;43.080;25.634;2023-03-23T08:10:05;25.63;;;20.80;;
12208;SDS011;6167;43.080;25.634;2023-03-23T08:12:44;12.53;;;11.00;;
12208;SDS011;6167;43.080;25.634;2023-03-23T08:15:13;14.50;;;12.57;;
12208;SDS011;6167;43.080;25.634;2023-03-23T08:17:42;18.13;;;13.40;;
12208;SDS011;6167;43.080;25.634;2023-03-23T08:20:09;12.47;;;10.30;;
12208;SDS011;6167;43.080;25.634;2023-03-23T08:22:38;13.33;;;11.27;;
12208;SDS011;6167;43.080;25.634;2023-03-23T08:25:05;13.83;;;11.13;;
12208;SDS011;6167;43.080;25.634;2023-03-23T08:27:32;11.47;;;9.63;;
12208;SDS011;6167;43.080;25.634;2023-03-23T08:29:59;10.20;;;9.20;;
12208;SDS011;6167;43.080;25.634;2023-03-23T08:32:26;13.27;;;10.60;;
12208;SDS011;6167;43.080;25.634;2023-03-23T08:34:54;13.50;;;10.27;;
12208;SDS011;6167;43.080;25.634;2023-03-23T08:37:22;10.53;;;8.67;;
12208;SDS011;6167;43.080;25.634;2023-03-23T08:39:50;11.50;;;9.10;;
12208;SDS011;6167;43.080;25.634;2023-03-23T08:42:17;11.80;;;10.50;;
12208;SDS011;6167;43.080;25.634;2023-03-23T08:44:44;13.63;;;12.13;;
12208;SDS011;6167;43.080;25.634;2023-03-23T08:47:11;12.90;;;11.47;;
12208;SDS011;6167;43.080;25.634;2023-03-23T08:49:38;20.53;;;15.23;;
12208;SDS011;6167;43.080;25.634;2023-03-23T08:52:08;10.97;;;9.83;;
12208;SDS011;6167;43.080;25.634;2023-03-23T08:54:35;16.03;;;11.93;;
12208;SDS011;6167;43.080;25.634;2023-03-23T08:57:03;38.20;;;30.90;;
12208;SDS011;6167;43.080;25.634;2023-03-23T08:59:30;12.60;;;10.67;;
12208;SDS011;6167;43.080;25.634;2023-03-23T09:02:01;11.80;;;9.90;;
12208;SDS011;6167;43.080;25.634;2023-03-23T09:04:28;13.13;;;10.10;;
12208;SDS011;6167;43.080;25.634;2023-03-23T09:06:58;15.83;;;12.97;;
12208;SDS011;6167;43.080;25.634;2023-03-23T09:09:27;18.50;;;15.73;;
12208;SDS011;6167;43.080;25.634;2023-03-23T09:11:53;12.03;;;10.53;;
12208;SDS011;6167;43.080;25.634;2023-03-23T09:14:21;14.00;;;11.27;;
12208;SDS011;6167;43.080;25.634;2023-03-23T09:16:48;65.30;;;35.90;;
12208;SDS011;6167;43.080;25.634;2023-03-23T09:19:14;18.00;;;12.60;;
12208;SDS011;6167;43.080;25.634;2023-03-23T09:21:41;15.57;;;10.47;;
12208;SDS011;6167;43.080;25.634;2023-03-23T09:24:10;11.63;;;9.93;;
12208;SDS011;6167;43.080;25.634;2023-03-23T09:26:38;11.27;;;9.57;;
12208;SDS011;6167;43.080;25.634;2023-03-23T09:29:05;12.80;;;11.60;;
12208;SDS011;6167;43.080;25.634;2023-03-23T09:34:29;11.17;;;9.93;;
12208;SDS011;6167;43.080;25.634;2023-03-23T09:36:55;11.67;;;9.90;;
12208;SDS011;6167;43.080;25.634;2023-03-23T09:39:23;12.57;;;8.50;;
12208;SDS011;6167;43.080;25.634;2023-03-23T09:41:54;8.77;;;7.90;;
12208;SDS011;6167;43.080;25.634;2023-03-23T09:44:26;7.60;;;6.73;;
12208;SDS011;6167;43.080;25.634;2023-03-23T09:46:58;9.83;;;7.40;;
12208;SDS011;6167;43.080;25.634;2023-03-23T09:49:26;9.07;;;7.07;;
12208;SDS011;6167;43.080;25.634;2023-03-23T09:51:54;7.73;;;6.93;;
12208;SDS011;6167;43.080;25.634;2023-03-23T09:54:23;8.43;;;6.53;;
12208;SDS011;6167;43.080;25.634;2023-03-23T09:56:52;8.43;;;7.23;;
12208;SDS011;6167;43.080;25.634;2023-03-23T09:59:22;7.87;;;7.00;;
12208;SDS011;6167;43.080;25.634;2023-03-23T10:01:51;8.77;;;7.53;;
12208;SDS011;6167;43.080;25.634;2023-03-23T10:04:27;8.43;;;7.33;;
12208;SDS011;6167;43.080;25.634;2023-03-23T10:06:59;13.67;;;7.90;;
12208;SDS011;6167;43.080;25.634;2023-03-23T10:09:26;8.80;;;7.13;;
12208;SDS011;6167;43.080;25.634;2023-03-23T10:11:57;8.47;;;6.87;;
12208;SDS011;6167;43.080;25.634;2023-03-23T10:14:30;8.17;;;7.37;;
12208;SDS011;6167;43.080;25.634;2023-03-23T10:17:00;10.97;;;7.80;;
12208;SDS011;6167;43.080;25.634;2023-03-23T10:19:29;8.13;;;7.30;;
12208;SDS011;6167;43.080;25.634;2023-03-23T10:21:59;8.00;;;7.17;;
12208;SDS011;6167;43.080;25.634;2023-03-23T10:24:31;9.53;;;7.57;;
12208;SDS011;6167;43.080;25.634;2023-03-23T10:27:01;8.27;;;7.03;;
12208;SDS011;6167;43.080;25.634;2023-03-23T10:29:34;7.93;;;7.13;;
12208;SDS011;6167;43.080;25.634;2023-03-23T10:32:03;9.40;;;8.33;;
12208;SDS011;6167;43.080;25.634;2023-03-23T10:34:32;13.45;;;8.60;;
12208;SDS011;6167;43.080;25.634;2023-03-23T10:37:04;11.47;;;8.53;;
12208;SDS011;6167;43.080;25.634;2023-03-23T10:39:37;8.93;;;7.70;;
12208;SDS011;6167;43.080;25.634;2023-03-23T10:42:05;11.93;;;9.20;;
12208;SDS011;6167;43.080;25.634;2023-03-23T10:44:35;13.17;;;10.63;;
12208;SDS011;6167;43.080;25.634;2023-03-23T10:47:03;10.23;;;8.70;;
12208;SDS011;6167;43.080;25.634;2023-03-23T10:49:34;14.50;;;10.43;;
12208;SDS011;6167;43.080;25.634;2023-03-23T10:52:05;13.20;;;9.33;;
12208;SDS011;6167;43.080;25.634;2023-03-23T10:54:35;9.32;;;8.25;;
12208;SDS011;6167;43.080;25.634;2023-03-23T10:57:12;9.05;;;8.10;;
12208;SDS011;6167;43.080;25.634;2023-03-23T10:59:41;9.70;;;8.55;;
12208;SDS011;6167;43.080;25.634;2023-03-23T11:02:12;12.68;;;8.90;;
12208;SDS011;6167;43.080;25.634;2023-03-23T11:04:44;11.02;;;9.10;;
12208;SDS011;6167;43.080;25.634;2023-03-23T11:07:13;8.98;;;8.07;;
12208;SDS011;6167;43.080;25.634;2023-03-23T11:09:51;15.43;;;11.33;;
12208;SDS011;6167;43.080;25.634;2023-03-23T11:12:18;9.00;;;8.10;;
12208;SDS011;6167;43.080;25.634;2023-03-23T11:14:49;10.03;;;9.00;;
12208;SDS011;6167;43.080;25.634;2023-03-23T11:17:21;10.43;;;8.67;;
12208;SDS011;6167;43.080;25.634;2023-03-23T11:19:47;15.77;;;10.93;;
12208;SDS011;6167;43.080;25.634;2023-03-23T11:22:15;43.90;;;22.73;;
12208;SDS011;6167;43.080;25.634;2023-03-23T11:24:44;14.17;;;10.47;;
12208;SDS011;6167;43.080;25.634;2023-03-23T11:27:12;9.93;;;8.70;;
12208;SDS011;6167;43.080;25.634;2023-03-23T11:29:47;11.03;;;8.90;;
12208;SDS011;6167;43.080;25.634;2023-03-23T11:32:18;11.03;;;9.30;;
12208;SDS011;6167;43.080;25.634;2023-03-23T11:34:46;17.60;;;11.63;;
12208;SDS011;6167;43.080;25.634;2023-03-23T11:37:14;17.37;;;11.63;;
12208;SDS011;6167;43.080;25.634;2023-03-23T11:39:54;11.33;;;8.73;;
12208;SDS011;6167;43.080;25.634;2023-03-23T11:42:21;9.60;;;8.47;;
12208;SDS011;6167;43.080;25.634;2023-03-23T11:44:53;12.07;;;9.37;;
12208;SDS011;6167;43.080;25.634;2023-03-23T11:47:22;11.10;;;9.07;;
12208;SDS011;6167;43.080;25.634;2023-03-23T11:49:54;9.57;;;8.50;;
12208;SDS011;6167;43.080;25.634;2023-03-23T11:52:23;9.60;;;8.53;;
12208;SDS011;6167;43.080;25.634;2023-03-23T11:54:53;9.40;;;8.40;;
12208;SDS011;6167;43.080;25.634;2023-03-23T11:57:21;10.00;;;8.98;;
12208;SDS011;6167;43.080;25.634;2023-03-23T11:59:49;10.47;;;9.20;;
12208;SDS011;6167;43.080;25.634;2023-03-23T12:02:26;11.10;;;9.90;;
12208;SDS011;6167;43.080;25.634;2023-03-23T12:04:57;11.23;;;9.73;;
12208;SDS011;6167;43.080;25.634;2023-03-23T12:07:32;9.90;;;8.90;;
12208;SDS011;6167;43.080;25.634;2023-03-23T12:10:08;10.47;;;9.37;;
12208;SDS011;6167;43.080;25.634;2023-03-23T12:12:39;10.60;;;9.07;;
12208;SDS011;6167;43.080;25.634;2023-03-23T12:15:09;10.57;;;8.87;;
12208;SDS011;6167;43.080;25.634;2023-03-23T12:17:43;11.13;;;9.40;;
12208;SDS011;6167;43.080;25.634;2023-03-23T12:20:16;9.67;;;8.77;;
12208;SDS011;6167;43.080;25.634;2023-03-23T12:25:45;11.27;;;9.10;;
12208;SDS011;6167;43.080;25.634;2023-03-23T12:28:15;10.90;;;9.30;;
12208;SDS011;6167;43.080;25.634;2023-03-23T12:30:49;11.63;;;8.83;;
12208;SDS011;6167;43.080;25.634;2023-03-23T12:33:22;10.13;;;8.77;;
12208;SDS011;6167;43.080;25.634;2023-03-23T12:36:01;9.57;;;8.30;;
12208;SDS011;6167;43.080;25.634;2023-03-23T12:38:34;10.10;;;9.10;;
12208;SDS011;6167;43.080;25.634;2023-03-23T12:41:09;9.63;;;8.63;;
12208;SDS011;6167;43.080;25.634;2023-03-23T12:43:38;10.47;;;8.93;;
12208;SDS011;6167;43.080;25.634;2023-03-23T12:46:20;10.33;;;9.33;;
12208;SDS011;6167;43.080;25.634;2023-03-23T12:48:51;12.07;;;9.17;;
12208;SDS011;6167;43.080;25.634;2023-03-23T12:51:20;11.10;;;9.17;;
12208;SDS011;6167;43.080;25.634;2023-03-23T12:53:51;11.60;;;9.37;;
12208;SDS011;6167;43.080;25.634;2023-03-23T12:56:21;10.20;;;8.97;;
12208;SDS011;6167;43.080;25.634;2023-03-23T12:58:50;9.47;;;8.53;;
12208;SDS011;6167;43.080;25.634;2023-03-23T13:01:20;10.50;;;8.73;;
12208;SDS011;6167;43.080;25.634;2023-03-23T13:03:52;10.77;;;8.75;;
12208;SDS011;6167;43.080;25.634;2023-03-23T13:06:21;10.37;;;9.37;;
12208;SDS011;6167;43.080;25.634;2023-03-23T13:08:50;9.77;;;8.77;;
12208;SDS011;6167;43.080;25.634;2023-03-23T13:11:19;9.50;;;8.57;;
12208;SDS011;6167;43.080;25.634;2023-03-23T13:13:48;10.47;;;9.43;;
12208;SDS011;6167;43.080;25.634;2023-03-23T13:16:20;9.67;;;8.67;;
12208;SDS011;6167;43.080;25.634;2023-03-23T13:18:55;9.87;;;8.87;;
12208;SDS011;6167;43.080;25.634;2023-03-23T13:21:24;11.70;;;9.00;;
12208;SDS011;6167;43.080;25.634;2023-03-23T13:23:53;13.17;;;11.97;;
12208;SDS011;6167;43.080;25.634;2023-03-23T13:26:21;17.57;;;16.00;;
12208;SDS011;6167;43.080;25.634;2023-03-23T13:28:51;12.70;;;11.50;;
12208;SDS011;6167;43.080;25.634;2023-03-23T13:31:21;16.05;;;14.57;;
12208;SDS011;6167;43.080;25.634;2023-03-23T13:33:58;38.87;;;23.03;;
12208;SDS011;6167;43.080;25.634;2023-03-23T13:36:27;11.23;;;9.87;;
12208;SDS011;6167;43.080;25.634;2023-03-23T13:38:54;11.70;;;9.50;;
12208;SDS011;6167;43.080;25.634;2023-03-23T13:41:23;9.77;;;8.87;;
12208;SDS011;6167;43.080;25.634;2023-03-23T13:43:50;12.20;;;9.53;;
12208;SDS011;6167;43.080;25.634;2023-03-23T13:46:24;9.32;;;8.32;;
12208;SDS011;6167;43.080;25.634;2023-03-23T13:49:04;11.53;;;9.23;;
12208;SDS011;6167;43.080;25.634;2023-03-23T13:51:34;10.13;;;8.83;;
12208;SDS011;6167;43.080;25.634;2023-03-23T13:54:05;10.07;;;8.73;;
12208;SDS011;6167;43.080;25.634;2023-03-23T13:56:35;13.07;;;10.00;;
12208;SDS011;6167;43.080;25.634;2023-03-23T13:59:06;10.47;;;8.87;;
12208;SDS011;6167;43.080;25.634;2023-03-23T14:01:34;12.47;;;9.73;;
12208;SDS011;6167;43.080;25.634;2023-03-23T14:04:05;10.20;;;8.97;;
12208;SDS011;6167;43.080;25.634;2023-03-23T14:06:33;11.70;;;8.80;;
12208;SDS011;6167;43.080;25.634;2023-03-23T14:09:04;12.13;;;9.47;;
12208;SDS011;6167;43.080;25.634;2023-03-23T14:11:31;11.90;;;9.50;;
12208;SDS011;6167;43.080;25.634;2023-03-23T14:14:01;31.23;;;27.80;;
12208;SDS011;6167;43.080;25.634;2023-03-23T14:16:32;11.70;;;9.75;;
12208;SDS011;6167;43.080;25.634;2023-03-23T14:19:03;11.35;;;9.13;;
12208;SDS011;6167;43.080;25.634;2023-03-23T14:21:33;12.73;;;10.17;;
12208;SDS011;6167;43.080;25.634;2023-03-23T14:24:05;15.25;;;12.43;;
12208;SDS011;6167;43.080;25.634;2023-03-23T14:26:33;11.30;;;9.73;;
12208;SDS011;6167;43.080;25.634;2023-03-23T14:29:00;10.73;;;8.80;;
12208;SDS011;6167;43.080;25.634;2023-03-23T14:31:27;11.00;;;9.80;;
12208;SDS011;6167;43.080;25.634;2023-03-23T14:33:54;12.13;;;9.13;;
12208;SDS011;6167;43.080;25.634;2023-03-23T14:36:22;12.07;;;9.40;;
12208;SDS011;6167;43.080;25.634;2023-03-23T14:38:56;12.55;;;9.50;;
12208;SDS011;6167;43.080;25.634;2023-03-23T14:41:27;12.30;;;9.87;;
12208;SDS011;6167;43.080;25.634;2023-03-23T14:43:54;21.42;;;17.00;;